createdAt,value
2022-10-06T00:01:10.311Z,12.28
2022-10-06T00:03:32.781Z,12.25
2022-10-06T00:06:02.377Z,12.20
2022-10-06T00:08:24.975Z,12.20
2022-10-06T00:10:47.579Z,12.18
2022-10-06T00:13:10.055Z,12.14
2022-10-06T00:15:33.030Z,12.14
2022-10-06T00:17:56.349Z,12.13
2022-10-06T00:20:18.929Z,12.08
2022-10-06T00:22:44.104Z,12.04
2022-10-06T00:25:07.077Z,12.05
2022-10-06T00:27:41.042Z,12.04
2022-10-06T00:30:05.143Z,12.01
2022-10-06T00:32:27.502Z,11.97
2022-10-06T00:34:49.840Z,11.97
2022-10-06T00:37:12.204Z,12.00
2022-10-06T00:39:34.668Z,11.90
2022-10-06T00:41:57.092Z,11.89
2022-10-06T00:44:19.488Z,11.89
2022-10-06T00:46:53.524Z,11.86
2022-10-06T00:49:35.777Z,11.83
2022-10-06T00:52:05.828Z,11.81
2022-10-06T00:54:28.672Z,11.82
2022-10-06T00:56:50.976Z,11.82
2022-10-06T00:59:15.477Z,11.80
2022-10-06T01:01:38.035Z,11.76
2022-10-06T01:04:05.473Z,11.72
2022-10-06T01:06:27.919Z,11.69
2022-10-06T01:08:50.300Z,11.69
2022-10-06T01:11:14.475Z,11.68
2022-10-06T01:13:36.919Z,11.64
2022-10-06T01:16:22.703Z,11.57
2022-10-06T01:18:45.236Z,11.59
2022-10-06T01:21:14.945Z,11.56
2022-10-06T01:23:37.453Z,11.58
2022-10-06T01:25:59.930Z,11.55
2022-10-06T01:28:22.366Z,11.53
2022-10-06T01:30:52.839Z,11.54
2022-10-06T01:33:15.367Z,11.54
2022-10-06T01:35:38.085Z,11.54
2022-10-06T01:38:00.466Z,11.54
2022-10-06T01:40:22.902Z,11.54
2022-10-06T01:42:45.231Z,11.55
2022-10-06T01:45:08.191Z,11.54
2022-10-06T01:47:30.588Z,11.54
2022-10-06T01:49:53.015Z,11.54
2022-10-06T01:52:15.354Z,11.56
2022-10-06T01:54:37.798Z,11.56
2022-10-06T01:57:00.183Z,11.53
2022-10-06T01:59:22.824Z,11.56
2022-10-06T02:01:45.206Z,11.55
2022-10-06T02:04:07.993Z,11.53
2022-10-06T02:06:30.506Z,11.51
2022-10-06T02:08:52.966Z,11.49
2022-10-06T02:11:15.380Z,11.47
2022-10-06T02:13:38.142Z,11.44
2022-10-06T02:16:00.653Z,11.44
2022-10-06T02:18:23.005Z,11.44
2022-10-06T02:20:45.462Z,11.43
2022-10-06T02:23:07.847Z,11.42
2022-10-06T02:25:30.219Z,11.42
2022-10-06T02:27:54.060Z,11.42
2022-10-06T02:30:16.658Z,11.42
2022-10-06T02:32:40.355Z,11.37
2022-10-06T02:35:03.910Z,11.40
2022-10-06T02:37:26.357Z,11.39
2022-10-06T02:39:48.809Z,11.37
2022-10-06T02:42:11.228Z,11.36
2022-10-06T02:44:33.677Z,11.38
2022-10-06T02:46:56.413Z,11.37
2022-10-06T02:49:18.946Z,11.38
2022-10-06T02:51:41.403Z,11.36
2022-10-06T02:54:03.896Z,11.38
2022-10-06T02:56:26.589Z,11.34
2022-10-06T02:58:50.404Z,11.37
2022-10-06T03:01:26.329Z,11.37
2022-10-06T03:03:48.724Z,11.37
2022-10-06T03:06:23.953Z,11.39
2022-10-06T03:08:46.319Z,11.35
2022-10-06T03:11:08.718Z,11.36
2022-10-06T03:13:31.358Z,11.33
2022-10-06T03:15:53.868Z,11.30
2022-10-06T03:18:16.369Z,11.30
2022-10-06T03:20:38.773Z,11.32
2022-10-06T03:23:01.179Z,11.32
2022-10-06T03:25:23.624Z,11.32
2022-10-06T03:27:46.007Z,11.32
2022-10-06T03:30:09.759Z,11.33
2022-10-06T03:32:32.116Z,11.33
2022-10-06T03:34:54.516Z,11.31
2022-10-06T03:37:19.179Z,11.32
2022-10-06T03:39:41.778Z,11.33
2022-10-06T03:42:04.291Z,11.32
2022-10-06T03:44:26.683Z,11.31
2022-10-06T03:46:49.187Z,11.28
2022-10-06T03:49:11.690Z,11.29
2022-10-06T03:51:39.887Z,11.26
2022-10-06T03:54:02.314Z,11.30
2022-10-06T03:56:32.991Z,11.33
2022-10-06T03:58:57.902Z,11.35
2022-10-06T04:01:32.328Z,11.31
2022-10-06T04:03:55.714Z,11.33
2022-10-06T04:06:19.259Z,11.32
2022-10-06T04:08:41.735Z,11.30
2022-10-06T04:11:16.067Z,11.32
2022-10-06T04:13:39.313Z,11.33
2022-10-06T04:16:31.792Z,11.29
2022-10-06T04:19:02.047Z,11.30
2022-10-06T04:21:24.595Z,11.31
2022-10-06T04:23:47.151Z,11.32
2022-10-06T04:26:16.355Z,11.34
2022-10-06T04:28:39.909Z,11.34
2022-10-06T04:31:02.519Z,11.35
2022-10-06T04:33:05.180Z,11.36
2022-10-06T04:35:08.471Z,11.38
2022-10-06T04:37:10.852Z,11.40
2022-10-06T04:39:13.115Z,11.44
2022-10-06T04:41:17.539Z,11.45
2022-10-06T04:43:19.652Z,11.48
2022-10-06T04:45:21.696Z,11.50
2022-10-06T04:47:23.723Z,11.55
2022-10-06T04:49:25.757Z,11.58
2022-10-06T04:51:28.252Z,11.60
2022-10-06T04:53:30.933Z,11.60
2022-10-06T04:55:32.927Z,11.63
2022-10-06T04:57:34.995Z,11.64
2022-10-06T04:59:55.718Z,11.64
2022-10-06T05:01:58.184Z,11.62
2022-10-06T05:04:01.358Z,11.65
2022-10-06T05:06:11.413Z,11.62
2022-10-06T05:08:13.663Z,11.62
2022-10-06T05:10:15.821Z,11.63
2022-10-06T05:12:17.844Z,11.66
2022-10-06T05:14:19.886Z,11.68
2022-10-06T05:16:22.417Z,11.69
2022-10-06T05:18:24.561Z,11.68
2022-10-06T05:20:26.656Z,11.72
2022-10-06T05:22:28.890Z,11.74
2022-10-06T05:24:30.917Z,11.74
2022-10-06T05:26:34.840Z,11.73
2022-10-06T05:28:37.462Z,11.77
2022-10-06T05:31:04.275Z,11.79
2022-10-06T05:33:07.537Z,11.80
2022-10-06T05:35:09.931Z,11.79
2022-10-06T05:37:12.013Z,11.84
2022-10-06T05:39:23.657Z,11.90
2022-10-06T05:41:30.570Z,11.91
2022-10-06T05:43:33.487Z,11.94
2022-10-06T05:45:35.583Z,11.96
2022-10-06T05:47:37.689Z,11.98
2022-10-06T05:49:39.770Z,12.04
2022-10-06T05:51:41.905Z,12.08
2022-10-06T05:53:44.391Z,12.11
2022-10-06T05:55:46.458Z,12.14
2022-10-06T05:57:48.525Z,12.19
2022-10-06T05:59:50.593Z,12.24
2022-10-06T06:01:53.240Z,12.30
2022-10-06T06:04:03.356Z,12.37
2022-10-06T06:06:15.329Z,12.45
2022-10-06T06:08:17.396Z,12.48
2022-10-06T06:10:19.503Z,12.57
2022-10-06T06:12:21.605Z,12.62
2022-10-06T06:14:42.315Z,12.69
2022-10-06T06:16:44.725Z,12.80
2022-10-06T06:18:46.909Z,12.85
2022-10-06T06:20:59.948Z,12.91
2022-10-06T06:23:02.086Z,13.01
2022-10-06T06:25:04.377Z,13.09
2022-10-06T06:27:06.459Z,13.16
2022-10-06T06:29:08.509Z,13.26
2022-10-06T06:31:16.269Z,13.31
2022-10-06T06:33:22.495Z,13.41
2022-10-06T06:35:24.817Z,13.47
2022-10-06T06:37:26.898Z,13.58
2022-10-06T06:39:29.012Z,13.69
2022-10-06T06:41:33.339Z,13.78
2022-10-06T06:43:35.635Z,13.90
2022-10-06T06:45:37.789Z,14.00
2022-10-06T06:47:39.994Z,14.03
2022-10-06T06:49:43.131Z,14.10
2022-10-06T06:51:49.829Z,14.13
2022-10-06T06:53:53.194Z,14.22
2022-10-06T06:55:55.268Z,14.27
2022-10-06T06:57:57.302Z,14.34
2022-10-06T07:00:08.076Z,14.40
2022-10-06T07:02:11.956Z,14.43
2022-10-06T07:04:15.883Z,14.50
2022-10-06T07:06:18.209Z,14.54
2022-10-06T07:08:20.471Z,14.60
2022-10-06T07:10:22.490Z,14.61
2022-10-06T07:12:25.419Z,14.64
2022-10-06T07:14:27.435Z,14.67
2022-10-06T07:16:49.430Z,14.66
2022-10-06T07:19:10.171Z,14.72
2022-10-06T07:21:34.180Z,14.81
2022-10-06T07:23:55.011Z,14.86
2022-10-06T07:25:57.043Z,14.90
2022-10-06T07:27:59.123Z,14.98
2022-10-06T07:30:01.220Z,15.02
2022-10-06T07:32:03.197Z,15.04
2022-10-06T07:34:06.573Z,15.11
2022-10-06T07:36:09.162Z,15.17
2022-10-06T07:38:27.622Z,15.23
2022-10-06T07:40:29.632Z,15.26
2022-10-06T07:42:47.855Z,15.30
2022-10-06T07:45:08.462Z,15.35
2022-10-06T07:47:10.674Z,15.46
2022-10-06T07:49:12.678Z,15.50
2022-10-06T07:51:17.059Z,15.61
2022-10-06T07:53:19.156Z,15.66
2022-10-06T07:55:21.225Z,15.77
2022-10-06T07:57:23.300Z,15.84
2022-10-06T07:59:25.307Z,15.91
2022-10-06T08:01:29.536Z,15.96
2022-10-06T08:03:32.982Z,16.02
2022-10-06T08:05:35.013Z,16.09
2022-10-06T08:07:37.069Z,16.07
2022-10-06T08:09:39.103Z,16.05
2022-10-06T08:11:41.206Z,16.08
2022-10-06T08:13:44.990Z,15.98
2022-10-06T08:15:49.187Z,16.04
2022-10-06T08:17:54.172Z,15.98
2022-10-06T08:19:56.337Z,16.04
2022-10-06T08:22:02.495Z,16.10
2022-10-06T08:24:06.960Z,16.13
2022-10-06T08:26:10.525Z,16.20
2022-10-06T08:28:13.177Z,16.36
2022-10-06T08:30:15.226Z,16.41
2022-10-06T08:32:20.049Z,16.44
2022-10-06T08:34:22.092Z,16.46
2022-10-06T08:36:30.853Z,16.53
2022-10-06T08:38:33.798Z,16.66
2022-10-06T08:40:35.838Z,16.76
2022-10-06T08:42:42.566Z,16.74
2022-10-06T08:45:02.963Z,16.71
2022-10-06T08:47:27.706Z,16.72
2022-10-06T08:49:41.014Z,16.76
2022-10-06T08:51:57.486Z,16.74
2022-10-06T08:54:12.806Z,16.94
2022-10-06T08:56:19.254Z,17.22
2022-10-06T08:58:33.316Z,17.26
2022-10-06T09:00:37.685Z,17.22
2022-10-06T09:02:43.809Z,17.19
2022-10-06T09:04:48.483Z,17.19
2022-10-06T09:07:14.388Z,17.11
2022-10-06T09:09:45.798Z,17.23
2022-10-06T09:12:16.685Z,17.13
2022-10-06T09:14:37.630Z,17.37
2022-10-06T09:16:41.055Z,17.58
2022-10-06T09:19:07.787Z,17.52
2022-10-06T09:21:36.924Z,17.98
2022-10-06T09:23:47.648Z,18.04
2022-10-06T09:25:49.893Z,18.21
2022-10-06T09:28:00.000Z,18.54
2022-10-06T09:30:02.715Z,18.70
2022-10-06T09:32:06.827Z,19.05
2022-10-06T09:34:39.607Z,19.50
2022-10-06T09:37:09.277Z,19.62
2022-10-06T09:39:11.374Z,19.50
2022-10-06T09:41:13.854Z,19.41
2022-10-06T09:43:29.305Z,19.70
2022-10-06T09:45:31.579Z,20.22
2022-10-06T09:47:45.990Z,20.38
2022-10-06T09:50:02.850Z,20.10
2022-10-06T09:52:13.098Z,19.97
2022-10-06T09:54:15.494Z,20.04
2022-10-06T09:56:19.402Z,20.17
2022-10-06T09:58:34.134Z,20.47
2022-10-06T10:00:56.562Z,20.73
2022-10-06T10:03:09.716Z,20.89
2022-10-06T10:05:21.528Z,21.25
2022-10-06T10:07:28.766Z,21.38
2022-10-06T10:09:30.837Z,21.18
2022-10-06T10:11:51.622Z,21.49
2022-10-06T10:13:53.617Z,22.14
2022-10-06T10:15:59.646Z,22.14
2022-10-06T10:18:03.753Z,22.16
2022-10-06T10:20:39.462Z,21.45
2022-10-06T10:22:41.514Z,21.63
2022-10-06T10:25:13.978Z,22.26
2022-10-06T10:27:33.655Z,22.77
2022-10-06T10:29:59.617Z,23.02
2022-10-06T10:32:11.958Z,22.68
2022-10-06T10:34:44.298Z,22.41
2022-10-06T10:36:53.273Z,22.43
2022-10-06T10:38:55.296Z,22.42
2022-10-06T10:41:20.090Z,22.72
2022-10-06T10:43:32.100Z,23.05
2022-10-06T10:45:36.199Z,22.99
2022-10-06T10:47:39.498Z,23.20
2022-10-06T10:49:44.465Z,23.51
2022-10-06T10:51:52.413Z,23.77
2022-10-06T10:54:03.416Z,23.94
2022-10-06T10:56:08.022Z,24.04
2022-10-06T10:58:45.683Z,23.90
2022-10-06T11:00:52.127Z,24.20
2022-10-06T11:02:58.534Z,24.20
2022-10-06T11:05:12.756Z,24.27
2022-10-06T11:07:39.179Z,23.87
2022-10-06T11:09:54.121Z,23.91
2022-10-06T11:12:20.210Z,23.77
2022-10-06T11:14:43.063Z,23.89
2022-10-06T11:17:16.303Z,24.30
2022-10-06T11:19:49.814Z,24.76
2022-10-06T11:22:47.342Z,25.01
2022-10-06T11:25:35.221Z,24.68
2022-10-06T11:28:26.234Z,24.91
2022-10-06T11:30:30.546Z,24.93
2022-10-06T11:33:08.028Z,24.79
2022-10-06T11:35:27.046Z,25.04
2022-10-06T11:37:54.120Z,24.93
2022-10-06T11:40:44.675Z,25.57
2022-10-06T11:43:25.300Z,25.58
2022-10-06T11:45:59.311Z,25.63
2022-10-06T11:48:24.351Z,26.23
2022-10-06T11:50:55.646Z,26.36
2022-10-06T11:52:57.685Z,26.52
2022-10-06T11:55:16.235Z,26.32
2022-10-06T11:57:29.392Z,27.00
2022-10-06T11:59:32.889Z,27.36
2022-10-06T12:01:35.215Z,26.90
2022-10-06T12:03:48.041Z,27.32
2022-10-06T12:05:56.265Z,27.59
2022-10-06T12:07:59.214Z,27.90
2022-10-06T12:10:30.059Z,27.60
2022-10-06T12:12:33.409Z,27.69
2022-10-06T12:17:21.443Z,27.40
2022-10-06T12:19:31.556Z,26.87
2022-10-06T12:21:50.430Z,26.28
2022-10-06T12:24:32.318Z,25.57
2022-10-06T12:26:57.911Z,25.07
2022-10-06T12:29:23.196Z,24.66
2022-10-06T12:31:46.607Z,24.74
2022-10-06T12:33:48.711Z,24.56
2022-10-06T12:35:50.771Z,24.15
2022-10-06T12:38:04.678Z,24.54
2022-10-06T12:40:55.545Z,24.99
2022-10-06T12:43:21.600Z,24.65
2022-10-06T12:45:23.705Z,24.87
2022-10-06T12:47:42.084Z,25.09
2022-10-06T12:49:54.518Z,24.80
2022-10-06T12:51:59.040Z,24.17
2022-10-06T12:54:12.375Z,23.76
2022-10-06T12:56:42.088Z,23.66
2022-10-06T12:58:44.125Z,23.69
2022-10-06T13:00:46.641Z,23.78
2022-10-06T13:02:48.651Z,24.23
2022-10-06T13:05:02.947Z,24.79
2022-10-06T13:07:31.177Z,25.36
2022-10-06T13:09:33.273Z,25.72
2022-10-06T13:11:35.443Z,25.97
2022-10-06T13:13:37.953Z,26.27
2022-10-06T13:15:41.671Z,26.43
2022-10-06T13:18:09.835Z,26.94
2022-10-06T13:20:58.245Z,26.86
2022-10-06T13:23:25.000Z,26.67
2022-10-06T13:25:41.502Z,26.09
2022-10-06T13:27:51.907Z,25.56
2022-10-06T13:30:21.879Z,25.47
2022-10-06T13:32:23.961Z,25.47
2022-10-06T13:34:36.033Z,25.38
2022-10-06T13:36:39.931Z,25.41
2022-10-06T13:38:42.213Z,24.99
2022-10-06T13:40:45.544Z,24.70
2022-10-06T13:42:47.876Z,24.85
2022-10-06T13:45:14.277Z,24.88
2022-10-06T13:47:21.666Z,24.72
2022-10-06T13:49:33.314Z,24.76
2022-10-06T13:51:35.459Z,24.53
2022-10-06T13:53:37.532Z,24.48
2022-10-06T13:55:39.560Z,24.71
2022-10-06T13:57:51.935Z,24.76
2022-10-06T14:00:23.200Z,24.68
2022-10-06T14:02:32.441Z,25.06
2022-10-06T14:04:37.402Z,25.29
2022-10-06T14:07:12.756Z,25.36
2022-10-06T14:09:21.342Z,25.41
2022-10-06T14:11:29.818Z,24.96
2022-10-06T14:13:40.533Z,24.33
2022-10-06T14:15:53.634Z,24.57
2022-10-06T14:18:01.600Z,24.60
2022-10-06T14:20:03.808Z,23.98
2022-10-06T14:22:06.421Z,23.86
2022-10-06T14:24:18.981Z,23.59
2022-10-06T14:26:29.972Z,24.00
2022-10-06T14:28:32.049Z,24.00
2022-10-06T14:30:34.071Z,23.89
2022-10-06T14:32:38.813Z,23.56
2022-10-06T14:34:42.065Z,23.48
2022-10-06T14:36:46.321Z,23.69
2022-10-06T14:38:49.465Z,23.57
2022-10-06T14:40:51.591Z,23.38
2022-10-06T14:42:53.625Z,23.46
2022-10-06T14:44:55.653Z,23.83
2022-10-06T14:46:57.986Z,23.73
2022-10-06T14:49:00.485Z,23.40
2022-10-06T14:51:04.177Z,23.27
2022-10-06T14:53:06.376Z,23.36
2022-10-06T14:55:09.149Z,22.97
2022-10-06T14:57:11.184Z,22.73
2022-10-06T14:59:17.185Z,22.64
2022-10-06T15:01:21.880Z,22.39
2022-10-06T15:03:24.112Z,22.27
2022-10-06T15:05:26.248Z,22.22
2022-10-06T15:07:46.501Z,22.07
2022-10-06T15:09:48.609Z,21.87
2022-10-06T15:11:51.836Z,21.48
2022-10-06T15:13:57.013Z,21.37
2022-10-06T15:15:59.232Z,21.70
2022-10-06T15:18:03.744Z,21.57
2022-10-06T15:20:07.462Z,21.58
2022-10-06T15:22:10.105Z,21.66
2022-10-06T15:24:14.210Z,21.48
2022-10-06T15:26:34.426Z,21.33
2022-10-06T15:28:55.172Z,21.02
2022-10-06T15:30:57.351Z,20.86
2022-10-06T15:33:01.763Z,20.72
2022-10-06T15:35:03.876Z,20.48
2022-10-06T15:37:05.968Z,20.33
2022-10-06T15:39:16.388Z,20.06
2022-10-06T15:41:19.112Z,19.74
2022-10-06T15:43:41.013Z,19.47
2022-10-06T15:45:53.868Z,19.32
2022-10-06T15:47:55.903Z,19.22
2022-10-06T15:49:57.976Z,19.21
2022-10-06T15:52:03.288Z,18.98
2022-10-06T15:54:05.966Z,18.88
2022-10-06T15:56:09.341Z,18.82
2022-10-06T15:58:11.394Z,18.80
2022-10-06T16:00:14.065Z,18.56
2022-10-06T16:02:17.381Z,18.41
2022-10-06T16:04:35.622Z,18.30
2022-10-06T16:06:54.576Z,18.27
2022-10-06T16:08:56.643Z,18.06
2022-10-06T16:10:59.529Z,18.06
2022-10-06T16:13:01.540Z,17.85
2022-10-06T16:15:03.918Z,17.78
2022-10-06T16:17:24.847Z,17.64
2022-10-06T16:19:47.251Z,17.39
2022-10-06T16:22:13.225Z,17.22
2022-10-06T16:24:35.553Z,17.18
2022-10-06T16:26:59.862Z,17.03
2022-10-06T16:29:22.275Z,16.99
2022-10-06T16:31:44.724Z,16.85
2022-10-06T16:34:07.622Z,16.72
2022-10-06T16:36:30.152Z,16.64
2022-10-06T16:38:53.684Z,16.57
2022-10-06T16:41:16.017Z,16.53
2022-10-06T16:43:43.192Z,16.39
2022-10-06T16:46:17.351Z,16.32
2022-10-06T16:48:42.153Z,16.30
2022-10-06T16:51:26.199Z,16.15
2022-10-06T16:54:02.898Z,16.17
2022-10-06T16:56:31.129Z,16.12
2022-10-06T16:59:01.452Z,16.01
2022-10-06T17:01:28.813Z,15.93
2022-10-06T17:04:08.055Z,15.82
2022-10-06T17:06:31.078Z,15.77
2022-10-06T17:08:53.636Z,15.72
2022-10-06T17:11:21.139Z,15.67
2022-10-06T17:13:45.356Z,15.55
2022-10-06T17:16:16.294Z,15.48
2022-10-06T17:18:38.815Z,15.44
2022-10-06T17:21:11.457Z,15.42
2022-10-06T17:23:45.254Z,15.29
2022-10-06T17:26:17.475Z,15.23
2022-10-06T17:28:42.144Z,15.20
2022-10-06T17:31:06.039Z,15.13
2022-10-06T17:33:32.562Z,15.06
2022-10-06T17:35:54.884Z,14.98
2022-10-06T17:38:17.225Z,14.86
2022-10-06T17:40:19.318Z,14.78
2022-10-06T17:42:21.375Z,14.71
2022-10-06T17:44:26.405Z,14.71
2022-10-06T17:46:28.568Z,14.67
2022-10-06T17:48:30.685Z,14.66
2022-10-06T17:50:33.259Z,14.61
2022-10-06T17:52:37.959Z,14.49
2022-10-06T17:54:41.547Z,14.50
2022-10-06T17:56:44.137Z,14.46
2022-10-06T17:58:58.181Z,14.38
2022-10-06T18:01:05.387Z,14.38
2022-10-06T18:03:09.073Z,14.35
2022-10-06T18:05:11.242Z,14.32
2022-10-06T18:07:13.314Z,14.27
2022-10-06T18:09:16.004Z,14.22
2022-10-06T18:11:33.951Z,14.16
2022-10-06T18:13:36.035Z,14.12
2022-10-06T18:15:38.189Z,14.03
2022-10-06T18:17:41.523Z,14.01
2022-10-06T18:19:44.196Z,13.97
2022-10-06T18:21:47.874Z,13.96
2022-10-06T18:23:50.093Z,13.90
2022-10-06T18:25:52.134Z,13.86
2022-10-06T18:27:54.963Z,13.84
2022-10-06T18:29:57.017Z,13.85
2022-10-06T18:32:25.820Z,13.74
2022-10-06T18:36:43.554Z,13.76
2022-10-06T18:38:46.949Z,13.69
2022-10-06T18:41:03.229Z,13.64
2022-10-06T18:43:05.294Z,13.60
2022-10-06T18:45:26.952Z,13.56
2022-10-06T18:47:48.023Z,13.50
2022-10-06T18:49:50.290Z,13.46
2022-10-06T18:51:58.363Z,13.43
2022-10-06T18:54:03.647Z,13.42
2022-10-06T18:56:07.259Z,13.41
2022-10-06T18:58:09.581Z,13.39
2022-10-06T19:00:12.103Z,13.36
2022-10-06T19:02:14.292Z,13.32
2022-10-06T19:04:20.227Z,13.36
2022-10-06T19:06:24.047Z,13.29
2022-10-06T19:08:29.397Z,13.29
2022-10-06T19:10:33.698Z,13.25
2022-10-06T19:12:35.868Z,13.20
2022-10-06T19:14:43.034Z,13.21
2022-10-06T19:16:46.575Z,13.16
2022-10-06T19:18:48.805Z,13.10
2022-10-06T19:20:51.720Z,13.01
2022-10-06T19:22:54.320Z,13.00
2022-10-06T19:24:56.458Z,12.94
2022-10-06T19:26:59.246Z,12.85
2022-10-06T19:29:02.597Z,12.83
2022-10-06T19:31:08.363Z,12.75
2022-10-06T19:33:10.500Z,12.75
2022-10-06T19:35:13.293Z,12.74
2022-10-06T19:37:15.596Z,12.65
2022-10-06T19:39:17.820Z,12.67
2022-10-06T19:41:38.516Z,12.71
2022-10-06T19:43:40.709Z,12.70
2022-10-06T19:45:43.125Z,12.69
2022-10-06T19:47:46.736Z,12.68
2022-10-06T19:49:49.483Z,12.71
2022-10-06T19:51:51.856Z,12.66
2022-10-06T19:53:53.875Z,12.64
2022-10-06T19:56:01.804Z,12.54
2022-10-06T19:58:03.847Z,12.45
2022-10-06T20:00:07.240Z,12.40
2022-10-06T20:02:10.919Z,12.35
2022-10-06T20:04:13.180Z,12.29
2022-10-06T20:06:15.471Z,12.27
2022-10-06T20:08:17.771Z,12.22
2022-10-06T20:10:19.878Z,12.16
2022-10-06T20:12:24.893Z,12.11
2022-10-06T20:14:27.627Z,12.14
2022-10-06T20:16:30.972Z,12.05
2022-10-06T20:18:41.029Z,12.06
2022-10-06T20:20:43.070Z,11.98
2022-10-06T20:22:45.535Z,11.90
2022-10-06T20:24:48.078Z,11.82
2022-10-06T20:26:50.745Z,11.84
2022-10-06T20:28:53.443Z,11.81
2022-10-06T20:30:55.520Z,11.79
2022-10-06T20:32:58.179Z,11.79
2022-10-06T20:35:01.966Z,11.73
2022-10-06T20:37:05.141Z,11.72
2022-10-06T20:39:34.890Z,11.76
2022-10-06T20:41:36.946Z,11.70
2022-10-06T20:43:39.384Z,11.70
2022-10-06T20:45:41.577Z,11.68
2022-10-06T20:47:43.818Z,11.66
2022-10-06T20:49:46.070Z,11.63
2022-10-06T20:51:52.184Z,11.65
2022-10-06T20:53:54.490Z,11.65
2022-10-06T20:55:56.606Z,11.63
2022-10-06T20:57:58.693Z,11.59
2022-10-06T21:00:00.733Z,11.49
2022-10-06T21:02:03.453Z,11.44
2022-10-06T21:04:05.599Z,11.37
2022-10-06T21:06:07.674Z,11.32
2022-10-06T21:08:09.747Z,11.26
2022-10-06T21:10:11.926Z,11.24
2022-10-06T21:12:15.671Z,11.20
2022-10-06T21:14:18.284Z,11.22
2022-10-06T21:16:21.671Z,11.19
2022-10-06T21:18:28.071Z,11.14
2022-10-06T21:20:30.153Z,11.14
2022-10-06T21:22:32.337Z,11.09
2022-10-06T21:24:34.469Z,11.03
2022-10-06T21:26:38.654Z,11.01
2022-10-06T21:28:41.170Z,11.02
2022-10-06T21:30:44.281Z,10.95
2022-10-06T21:32:46.455Z,10.92
2022-10-06T21:34:48.620Z,10.90
2022-10-06T21:37:09.131Z,10.83
2022-10-06T21:39:29.730Z,10.81
2022-10-06T21:41:52.127Z,10.80
2022-10-06T21:44:16.549Z,10.79
2022-10-06T21:46:47.383Z,10.76
2022-10-06T21:49:11.390Z,10.74
2022-10-06T21:51:33.929Z,10.73
2022-10-06T21:53:57.044Z,10.70
2022-10-06T21:56:20.001Z,10.66
2022-10-06T21:58:42.424Z,10.70
2022-10-06T22:01:05.985Z,10.66
2022-10-06T22:03:28.403Z,10.63
2022-10-06T22:05:50.880Z,10.60
2022-10-06T22:08:13.454Z,10.62
2022-10-06T22:10:35.893Z,10.58
2022-10-06T22:12:58.263Z,10.54
2022-10-06T22:15:20.724Z,10.55
2022-10-06T22:17:43.359Z,10.55
2022-10-06T22:20:06.953Z,10.51
2022-10-06T22:22:29.353Z,10.48
2022-10-06T22:24:51.716Z,10.51
2022-10-06T22:27:14.079Z,10.45
2022-10-06T22:29:36.521Z,10.44
2022-10-06T22:31:58.982Z,10.45
2022-10-06T22:34:21.483Z,10.46
2022-10-06T22:36:43.870Z,10.42
2022-10-06T22:39:06.404Z,10.40
2022-10-06T22:41:28.893Z,10.39
2022-10-06T22:43:58.269Z,10.37
2022-10-06T22:46:20.728Z,10.35
2022-10-06T22:48:43.181Z,10.37
2022-10-06T22:51:06.013Z,10.31
2022-10-06T22:53:31.009Z,10.23
2022-10-06T22:55:53.465Z,10.22
2022-10-06T22:58:16.199Z,10.18
2022-10-06T23:00:38.747Z,10.15
2022-10-06T23:03:01.202Z,10.18
2022-10-06T23:05:23.670Z,10.13
2022-10-06T23:07:46.735Z,10.10
2022-10-06T23:10:09.535Z,10.07
2022-10-06T23:12:31.921Z,10.06
2022-10-06T23:14:54.271Z,10.07
2022-10-06T23:17:16.624Z,10.07
2022-10-06T23:19:38.982Z,10.00
2022-10-06T23:22:01.348Z,10.00
2022-10-06T23:24:23.707Z,10.00
2022-10-06T23:26:47.181Z,10.00
2022-10-06T23:29:10.354Z,9.98
2022-10-06T23:31:32.778Z,9.94
2022-10-06T23:33:55.377Z,9.83
2022-10-06T23:36:18.032Z,9.86
2022-10-06T23:38:40.631Z,9.81
2022-10-06T23:41:03.145Z,9.81
2022-10-06T23:43:25.593Z,9.78
2022-10-06T23:45:48.023Z,9.75
2022-10-06T23:48:10.537Z,9.72
2022-10-06T23:50:32.898Z,9.71
2022-10-06T23:52:55.239Z,9.71
2022-10-06T23:55:17.645Z,9.65
2022-10-06T23:57:40.053Z,9.60
